createdAt,value
2019-05-11T00:02:54.805Z,1.87
2019-05-11T00:07:59.007Z,1.87
2019-05-11T00:13:03.171Z,1.70
2019-05-11T00:18:07.357Z,1.63
2019-05-11T00:23:11.492Z,1.90
2019-05-11T00:28:15.619Z,1.97
2019-05-11T00:33:19.934Z,1.77
2019-05-11T00:38:24.027Z,2.10
2019-05-11T00:43:29.765Z,1.83
2019-05-11T00:48:35.608Z,2.10
2019-05-11T00:53:42.929Z,1.90
2019-05-11T00:58:47.032Z,2.00
2019-05-11T01:03:53.510Z,1.80
2019-05-11T01:08:57.800Z,2.17
2019-05-11T01:14:02.119Z,2.00
2019-05-11T01:19:07.949Z,2.23
2019-05-11T01:24:13.243Z,2.40
2019-05-11T01:29:17.376Z,2.00
2019-05-11T01:34:22.828Z,2.10
2019-05-11T01:39:27.148Z,2.47
2019-05-11T01:44:31.250Z,2.03
2019-05-11T01:49:35.361Z,2.03
2019-05-11T01:54:39.447Z,2.20
2019-05-11T01:59:43.804Z,2.27
2019-05-11T02:04:51.901Z,2.17
2019-05-11T02:09:57.245Z,2.70
2019-05-11T02:15:01.382Z,2.63
2019-05-11T02:20:05.596Z,2.90
2019-05-11T02:25:09.771Z,2.93
2019-05-11T02:30:14.178Z,3.47
2019-05-11T02:35:18.513Z,3.83
2019-05-11T02:40:22.792Z,3.20
2019-05-11T02:45:39.107Z,3.23
2019-05-11T02:50:43.527Z,3.53
2019-05-11T02:55:50.149Z,3.37
2019-05-11T03:00:57.749Z,3.63
2019-05-11T03:06:02.096Z,3.73
2019-05-11T03:11:06.193Z,3.87
2019-05-11T03:16:10.449Z,3.73
2019-05-11T03:21:14.785Z,4.07
2019-05-11T03:26:18.980Z,3.80
2019-05-11T03:31:24.328Z,3.73
2019-05-11T03:36:28.844Z,3.60
2019-05-11T03:41:33.188Z,3.70
2019-05-11T03:46:38.503Z,4.53
2019-05-11T03:51:42.594Z,4.30
2019-05-11T03:56:48.321Z,4.23
2019-05-11T04:01:53.951Z,4.03
2019-05-11T04:06:58.042Z,3.70
2019-05-11T04:12:02.210Z,3.83
2019-05-11T04:17:06.786Z,3.83
2019-05-11T04:22:10.922Z,3.43
2019-05-11T04:27:19.344Z,3.77
2019-05-11T04:32:22.975Z,3.30
2019-05-11T04:37:28.616Z,3.60
2019-05-11T04:42:32.725Z,2.97
2019-05-11T04:47:36.825Z,3.33
2019-05-11T04:52:41.587Z,2.77
2019-05-11T04:57:45.941Z,3.33
2019-05-11T05:02:50.288Z,3.03
2019-05-11T05:08:08.488Z,2.93
2019-05-11T05:13:10.092Z,3.17
2019-05-11T05:18:07.291Z,2.90
2019-05-11T05:23:11.621Z,3.40
2019-05-11T05:28:15.975Z,3.60
2019-05-11T05:33:20.328Z,3.50
2019-05-11T05:38:24.746Z,3.27
2019-05-11T05:43:29.469Z,3.83
2019-05-11T05:48:36.345Z,3.77
2019-05-11T05:53:41.473Z,3.17
2019-05-11T05:58:46.999Z,3.77
2019-05-11T06:03:52.037Z,3.13
2019-05-11T06:08:59.172Z,3.43
2019-05-11T06:14:03.298Z,3.20
2019-05-11T06:19:07.524Z,3.10
2019-05-11T06:24:11.905Z,3.50
2019-05-11T06:29:16.008Z,3.20
2019-05-11T06:34:20.124Z,3.13
2019-05-11T06:39:24.331Z,2.57
2019-05-11T06:44:28.499Z,2.77
2019-05-11T06:49:32.879Z,2.10
2019-05-11T06:54:38.461Z,2.40
2019-05-11T06:59:43.811Z,2.57
2019-05-11T07:04:47.996Z,2.33
2019-05-11T07:09:53.720Z,2.57
2019-05-11T07:14:58.055Z,2.60
2019-05-11T07:20:02.222Z,2.40
2019-05-11T07:25:06.628Z,2.20
2019-05-11T07:30:12.133Z,2.30
2019-05-11T07:35:18.709Z,2.20
2019-05-11T07:40:22.331Z,2.07
2019-05-11T07:45:28.374Z,2.40
2019-05-11T07:50:32.237Z,2.20
2019-05-11T07:55:38.371Z,2.50
2019-05-11T08:00:42.151Z,2.20
2019-05-11T08:05:47.847Z,2.00
2019-05-11T08:10:52.356Z,2.03
2019-05-11T08:15:57.841Z,2.10
2019-05-11T08:21:03.615Z,1.87
2019-05-11T08:26:09.015Z,2.10
2019-05-11T08:31:15.050Z,1.77
2019-05-11T08:36:19.179Z,1.43
2019-05-11T08:41:23.675Z,1.63
2019-05-11T08:46:28.096Z,1.53
2019-05-11T08:51:32.300Z,1.90
2019-05-11T08:56:38.258Z,1.83
2019-05-11T09:01:44.747Z,1.50
2019-05-11T09:06:49.235Z,1.40
2019-05-11T09:11:54.783Z,1.30
2019-05-11T09:17:00.324Z,1.47
2019-05-11T09:22:04.453Z,1.17
2019-05-11T09:27:12.541Z,1.20
2019-05-11T09:32:17.973Z,1.40
2019-05-11T09:37:22.565Z,1.13
2019-05-11T09:42:28.569Z,1.10
2019-05-11T09:47:34.892Z,1.13
2019-05-11T09:52:45.002Z,1.20
2019-05-11T09:57:49.486Z,1.10
2019-05-11T10:02:53.874Z,1.00
2019-05-11T10:08:00.514Z,1.10
2019-05-11T10:13:05.233Z,1.10
2019-05-11T10:18:11.640Z,1.00
2019-05-11T10:23:30.714Z,1.10
2019-05-11T10:28:52.533Z,0.87
2019-05-11T10:34:09.892Z,0.80
2019-05-11T10:39:19.968Z,0.90
2019-05-11T10:44:33.955Z,0.73
2019-05-11T10:49:48.601Z,0.90
2019-05-11T10:55:12.326Z,0.80
2019-05-11T11:00:29.441Z,0.70
2019-05-11T11:05:45.673Z,0.70
2019-05-11T11:10:58.423Z,1.10
2019-05-11T11:16:05.274Z,1.13
2019-05-11T11:21:27.723Z,1.00
2019-05-11T11:26:59.111Z,1.33
2019-05-11T11:32:09.415Z,1.37
2019-05-11T11:37:20.236Z,1.43
2019-05-11T11:42:31.621Z,1.53
2019-05-11T11:47:39.779Z,1.80
2019-05-11T11:52:47.723Z,1.60
2019-05-11T11:58:08.299Z,1.70
2019-05-11T12:03:12.972Z,1.80
2019-05-11T12:08:58.621Z,1.50
2019-05-11T12:14:31.276Z,1.47
2019-05-11T12:19:58.518Z,1.77
2019-05-11T12:25:01.405Z,1.50
2019-05-11T12:30:08.969Z,1.80
2019-05-11T12:35:17.825Z,1.80
2019-05-11T12:40:22.752Z,1.50
2019-05-11T12:45:26.943Z,1.40
2019-05-11T12:50:31.876Z,1.60
2019-05-11T12:55:38.012Z,1.60
2019-05-11T13:00:42.578Z,1.63
2019-05-11T13:05:48.493Z,1.57
2019-05-11T13:10:52.922Z,1.63
2019-05-11T13:15:58.648Z,1.83
2019-05-11T13:21:03.844Z,1.50
2019-05-11T13:26:08.754Z,1.93
2019-05-11T13:31:14.435Z,1.57
2019-05-11T13:36:21.892Z,1.60
2019-05-11T13:41:28.077Z,1.83
2019-05-11T13:46:50.260Z,1.50
2019-05-11T13:52:09.110Z,1.50
2019-05-11T13:57:37.886Z,1.80
2019-05-11T14:02:48.330Z,1.80
2019-05-11T14:08:08.170Z,2.00
2019-05-11T14:13:23.519Z,1.70
2019-05-11T14:18:39.297Z,2.03
2019-05-11T14:23:49.183Z,1.77
2019-05-11T14:28:57.841Z,1.83
2019-05-11T14:34:09.011Z,2.10
2019-05-11T14:39:27.804Z,2.00
2019-05-11T14:44:42.628Z,1.93
2019-05-11T14:49:57.685Z,1.80
2019-05-11T14:55:14.456Z,2.10
2019-05-11T15:07:30.868Z,2.20
2019-05-11T15:12:48.874Z,1.90
2019-05-11T15:17:54.206Z,2.30
2019-05-11T15:22:59.945Z,2.13
2019-05-11T15:28:05.365Z,2.03
2019-05-11T15:33:14.806Z,1.97
2019-05-11T15:38:18.989Z,2.10
2019-05-11T15:43:30.787Z,1.80
2019-05-11T15:48:58.774Z,2.00
2019-05-11T15:54:08.034Z,1.80
2019-05-11T16:00:13.560Z,2.03
2019-05-11T16:04:52.558Z,1.63
2019-05-11T16:10:38.365Z,2.00
2019-05-11T16:16:15.414Z,1.90
2019-05-11T16:21:58.550Z,1.87
2019-05-11T16:27:51.623Z,1.70
2019-05-11T16:33:39.451Z,1.80
2019-05-11T16:44:57.740Z,1.87
2019-05-11T16:50:28.220Z,1.70
2019-05-11T16:56:00.139Z,1.57
2019-05-11T17:01:08.583Z,1.23
2019-05-11T17:06:32.366Z,1.07
2019-05-11T17:17:58.687Z,1.17
2019-05-11T17:23:08.720Z,1.37
2019-05-11T17:28:38.503Z,1.50
2019-05-11T17:34:04.814Z,1.20
2019-05-11T17:39:22.158Z,1.40
2019-05-11T17:44:41.194Z,1.57
2019-05-11T17:50:03.463Z,1.50
2019-05-11T17:55:32.040Z,1.40
2019-05-11T18:00:59.390Z,1.43
2019-05-11T18:06:08.278Z,1.50
2019-05-11T18:12:50.211Z,1.70
2019-05-11T18:17:02.706Z,1.50
2019-05-11T18:22:10.893Z,1.60
2019-05-11T18:27:27.821Z,1.50
2019-05-11T18:32:55.051Z,1.57
2019-05-11T18:38:08.603Z,1.80
2019-05-11T18:43:31.467Z,1.63
2019-05-11T18:48:57.081Z,1.40
2019-05-11T18:54:03.421Z,1.53
2019-05-11T18:59:08.908Z,1.67
2019-05-11T19:04:13.437Z,1.83
2019-05-11T19:09:18.066Z,1.60
2019-05-11T19:14:24.606Z,1.63
2019-05-11T19:19:28.956Z,1.50
2019-05-11T19:24:33.057Z,1.50
2019-05-11T19:29:40.312Z,1.70
2019-05-11T19:34:47.764Z,1.80
2019-05-11T19:39:50.931Z,1.70
2019-05-11T19:44:55.091Z,1.40
2019-05-11T19:50:00.025Z,1.70
2019-05-11T19:55:04.428Z,1.70
2019-05-11T20:00:14.717Z,2.13
2019-05-11T20:05:18.836Z,2.10
2019-05-11T20:10:27.599Z,1.90
2019-05-11T20:15:58.370Z,2.00
2019-05-11T20:21:19.190Z,1.73
2019-05-11T20:26:28.627Z,2.03
2019-05-11T20:32:19.906Z,2.87
2019-05-11T20:37:32.834Z,2.10
2019-05-11T20:42:52.486Z,2.17
2019-05-11T20:48:07.897Z,1.90
2019-05-11T20:53:30.814Z,1.67
2019-05-11T20:58:59.318Z,1.60
2019-05-11T21:04:03.100Z,1.50
2019-05-11T21:09:07.959Z,1.40
2019-05-11T21:14:12.631Z,1.40
2019-05-11T21:19:18.782Z,1.60
2019-05-11T21:24:24.269Z,1.20
2019-05-11T21:29:31.321Z,1.33
2019-05-11T21:34:34.481Z,1.37
2019-05-11T21:39:40.519Z,1.57
2019-05-11T21:44:47.276Z,1.30
2019-05-11T21:49:51.645Z,1.50
2019-05-11T21:54:58.312Z,1.90
2019-05-11T22:00:02.735Z,1.30
2019-05-11T22:05:09.014Z,1.80
2019-05-11T22:10:13.887Z,1.70
2019-05-11T22:15:19.696Z,2.10
2019-05-11T22:20:28.614Z,1.83
2019-05-11T22:25:32.976Z,2.33
2019-05-11T22:30:39.250Z,1.83
2019-05-11T22:35:43.879Z,1.73
2019-05-11T22:40:48.757Z,1.63
2019-05-11T22:45:58.107Z,1.63
2019-05-11T22:51:07.992Z,1.80
2019-05-11T22:56:12.708Z,1.57
2019-05-11T23:01:17.905Z,1.83
2019-05-11T23:06:23.854Z,1.93
2019-05-11T23:11:29.789Z,1.90
2019-05-11T23:16:34.223Z,1.90
2019-05-11T23:21:41.803Z,2.20
2019-05-11T23:26:48.112Z,2.00
2019-05-11T23:31:53.284Z,1.70
2019-05-11T23:36:59.829Z,1.50
2019-05-11T23:42:04.407Z,1.77
2019-05-11T23:47:08.581Z,1.97
2019-05-11T23:52:13.643Z,1.67
2019-05-11T23:57:18.617Z,1.70
